Time;durP1;ratioP1;P1;durP2;ratioP2;P2;SDS_P1;SDS_P2;PMS_P1;PMS_P2;Temp;Humidity;BMP_temperature;BMP_pressure;BME280_temperature;BME280_humidity;BME280_pressure;Samples;Min_cycle;Max_cycle;Signal;HPM_P1;HPM_P2
2020/02/25 00:02:21;;;;;;;2.81;1.39;;;;;;;19.08;41.82;99822.36;;;;-58
2020/02/25 00:05:22;;;;;;;1.49;1.35;;;;;;;19.06;41.82;99817.94;;;;-58
2020/02/25 00:08:22;;;;;;;1.97;1.44;;;;;;;19.06;41.82;99810.58;;;;-58
2020/02/25 00:11:21;;;;;;;2.86;1.47;;;;;;;19.05;41.82;99813.05;;;;-58
2020/02/25 00:14:21;;;;;;;1.84;1.39;;;;;;;19.03;41.83;99813.91;;;;-56
2020/02/25 00:17:22;;;;;;;1.44;1.30;;;;;;;19.03;41.79;99816.76;;;;-56
2020/02/25 00:20:22;;;;;;;1.55;1.45;;;;;;;19.02;41.78;99814.05;;;;-56
2020/02/25 00:23:22;;;;;;;2.01;1.30;;;;;;;19.01;41.80;99813.01;;;;-56
2020/02/25 00:26:33;;;;;;;2.63;1.44;;;;;;;19.00;41.82;99808.28;;;;-57
2020/02/25 00:29:21;;;;;;;1.41;1.31;;;;;;;18.99;41.81;99806.64;;;;-58
2020/02/25 00:32:22;;;;;;;1.95;1.30;;;;;;;18.98;41.79;99802.59;;;;-56
2020/02/25 00:35:21;;;;;;;1.98;1.30;;;;;;;18.97;41.79;99799.98;;;;-56
2020/02/25 00:38:22;;;;;;;1.45;1.35;;;;;;;18.96;41.80;99789.13;;;;-57
2020/02/25 00:41:22;;;;;;;1.45;1.33;;;;;;;18.95;41.80;99793.31;;;;-56
2020/02/25 00:44:22;;;;;;;1.73;1.30;;;;;;;18.94;41.83;99796.13;;;;-58
2020/02/25 00:47:21;;;;;;;1.69;1.30;;;;;;;18.93;41.83;99795.75;;;;-57
2020/02/25 00:50:22;;;;;;;1.54;1.38;;;;;;;18.93;41.81;99790.36;;;;-56
2020/02/25 00:53:21;;;;;;;1.42;1.32;;;;;;;18.92;41.83;99789.32;;;;-58
2020/02/25 00:56:22;;;;;;;1.43;1.33;;;;;;;18.90;41.83;99779.31;;;;-57
2020/02/25 00:59:21;;;;;;;1.39;1.29;;;;;;;18.89;41.85;99781.78;;;;-56
2020/02/25 01:02:21;;;;;;;1.75;1.30;;;;;;;18.87;41.84;99774.86;;;;-57
2020/02/25 01:05:22;;;;;;;1.48;1.38;;;;;;;18.88;41.79;99768.70;;;;-58
2020/02/25 01:08:21;;;;;;;1.42;1.32;;;;;;;18.87;41.82;99765.98;;;;-56
2020/02/25 01:11:21;;;;;;;1.31;1.21;;;;;;;18.87;41.83;99765.22;;;;-58
2020/02/25 01:14:22;;;;;;;1.35;1.25;;;;;;;18.86;41.81;99758.33;;;;-58
2020/02/25 01:17:21;;;;;;;1.27;1.19;;;;;;;18.85;41.82;99756.72;;;;-57
2020/02/25 01:20:21;;;;;;;1.37;1.27;;;;;;;18.84;41.83;99742.73;;;;-56
2020/02/25 01:23:21;;;;;;;1.53;1.43;;;;;;;18.83;41.86;99742.49;;;;-56
2020/02/25 01:26:21;;;;;;;1.30;1.20;;;;;;;18.83;41.84;99739.31;;;;-57
2020/02/25 01:29:21;;;;;;;1.37;1.21;;;;;;;18.82;41.87;99733.59;;;;-55
2020/02/25 01:32:21;;;;;;;1.30;1.20;;;;;;;18.80;41.86;99726.70;;;;-57
2020/02/25 01:35:22;;;;;;;1.30;1.20;;;;;;;18.80;41.84;99726.03;;;;-58
2020/02/25 01:38:21;;;;;;;1.31;1.21;;;;;;;18.79;41.83;99721.14;;;;-57
2020/02/25 01:41:22;;;;;;;1.29;1.20;;;;;;;18.77;41.88;99711.80;;;;-55
2020/02/25 01:44:22;;;;;;;1.40;1.30;;;;;;;18.77;41.89;99718.89;;;;-57
2020/02/25 01:47:21;;;;;;;1.40;1.30;;;;;;;18.76;41.84;99707.48;;;;-57
2020/02/25 01:50:22;;;;;;;1.37;1.27;;;;;;;18.76;41.86;99696.34;;;;-58
2020/02/25 01:53:22;;;;;;;1.66;1.26;;;;;;;18.75;41.89;99691.30;;;;-56
2020/02/25 01:56:21;;;;;;;1.19;1.19;;;;;;;18.75;41.89;99691.45;;;;-57
2020/02/25 01:59:22;;;;;;;1.19;1.12;;;;;;;18.74;41.85;99685.17;;;;-57
2020/02/25 02:02:22;;;;;;;1.39;1.29;;;;;;;18.73;41.87;99692.56;;;;-58
2020/02/25 02:05:21;;;;;;;1.37;1.27;;;;;;;18.72;41.84;99685.16;;;;-57
2020/02/25 02:08:21;;;;;;;1.49;1.23;;;;;;;18.72;41.89;99685.43;;;;-57
2020/02/25 02:11:22;;;;;;;1.29;1.20;;;;;;;18.72;41.84;99677.23;;;;-56
2020/02/25 02:14:22;;;;;;;1.30;1.20;;;;;;;18.70;41.88;99672.42;;;;-57
2020/02/25 02:17:22;;;;;;;1.30;1.20;;;;;;;18.70;41.88;99666.46;;;;-57
2020/02/25 02:20:22;;;;;;;1.30;1.20;;;;;;;18.70;41.85;99664.22;;;;-58
2020/02/25 02:23:22;;;;;;;1.37;1.27;;;;;;;18.68;41.89;99667.23;;;;-56
2020/02/25 02:31:22;;;;;;;1.43;1.33;;;;;;;18.66;41.88;99660.47;;;;-57
2020/02/25 02:34:21;;;;;;;1.31;1.21;;;;;;;18.66;41.90;99661.64;;;;-58
2020/02/25 02:37:22;;;;;;;1.29;1.19;;;;;;;18.65;41.91;99665.05;;;;-58
2020/02/25 02:40:22;;;;;;;1.30;1.20;;;;;;;18.65;41.91;99658.27;;;;-58
2020/02/25 02:43:22;;;;;;;1.30;1.20;;;;;;;18.65;41.90;99654.34;;;;-57
2020/02/25 02:46:22;;;;;;;1.30;1.21;;;;;;;18.63;41.91;99651.20;;;;-56
2020/02/25 02:49:22;;;;;;;1.28;1.18;;;;;;;18.63;41.92;99647.99;;;;-56
2020/02/25 02:52:21;;;;;;;1.30;1.20;;;;;;;18.63;41.90;99649.50;;;;-56
2020/02/25 02:55:22;;;;;;;1.13;1.10;;;;;;;18.62;41.92;99651.00;;;;-57
2020/02/25 02:58:21;;;;;;;1.33;1.23;;;;;;;18.62;41.91;99648.22;;;;-58
2020/02/25 03:01:22;;;;;;;1.31;1.21;;;;;;;18.62;41.91;99645.11;;;;-58
2020/02/25 03:04:22;;;;;;;1.18;1.09;;;;;;;18.61;41.91;99644.84;;;;-57
2020/02/25 03:07:22;;;;;;;1.30;1.20;;;;;;;18.61;41.96;99645.25;;;;-58
2020/02/25 03:10:22;;;;;;;1.37;1.27;;;;;;;18.60;41.91;99635.01;;;;-58
2020/02/25 03:13:21;;;;;;;1.33;1.23;;;;;;;18.59;41.92;99630.33;;;;-55
2020/02/25 03:16:21;;;;;;;1.30;1.20;;;;;;;18.58;41.94;99625.08;;;;-57
2020/02/25 03:19:22;;;;;;;1.22;1.19;;;;;;;18.58;41.93;99625.24;;;;-57
2020/02/25 03:22:22;;;;;;;1.30;1.20;;;;;;;18.57;41.94;99620.80;;;;-57
2020/02/25 03:25:22;;;;;;;1.27;1.17;;;;;;;18.57;41.95;99622.53;;;;-56
2020/02/25 03:28:21;;;;;;;1.28;1.18;;;;;;;18.56;41.98;99615.74;;;;-57
2020/02/25 03:31:22;;;;;;;1.33;1.23;;;;;;;18.55;41.97;99614.27;;;;-56
2020/02/25 03:34:22;;;;;;;1.16;1.16;;;;;;;18.55;41.97;99620.05;;;;-57
2020/02/25 03:37:22;;;;;;;1.26;1.17;;;;;;;18.54;41.96;99619.52;;;;-58
2020/02/25 03:40:22;;;;;;;1.40;1.30;;;;;;;18.54;42.01;99623.36;;;;-55
2020/02/25 03:43:22;;;;;;;1.10;1.10;;;;;;;18.54;41.95;99622.69;;;;-58
2020/02/25 03:46:22;;;;;;;1.69;1.20;;;;;;;18.53;41.99;99621.39;;;;-57
2020/02/25 03:49:22;;;;;;;1.10;1.10;;;;;;;18.53;41.98;99612.80;;;;-57
2020/02/25 03:52:22;;;;;;;1.30;1.20;;;;;;;18.51;41.99;99615.34;;;;-58
2020/02/25 03:55:22;;;;;;;1.30;1.20;;;;;;;18.52;41.99;99614.67;;;;-56
2020/02/25 03:58:22;;;;;;;1.30;1.20;;;;;;;18.51;41.97;99621.19;;;;-58
2020/02/25 04:01:22;;;;;;;1.10;1.09;;;;;;;18.50;41.95;99621.05;;;;-57
2020/02/25 04:04:22;;;;;;;1.31;1.21;;;;;;;18.51;41.96;99621.09;;;;-57
2020/02/25 04:07:21;;;;;;;1.22;1.16;;;;;;;18.51;41.94;99628.55;;;;-57
2020/02/25 04:10:21;;;;;;;0.99;0.99;;;;;;;18.52;41.99;99626.38;;;;-57
2020/02/25 04:13:22;;;;;;;1.31;1.10;;;;;;;18.53;41.92;99626.51;;;;-57
2020/02/25 04:16:22;;;;;;;1.34;1.24;;;;;;;18.54;41.94;99628.37;;;;-56
2020/02/25 04:19:21;;;;;;;1.11;1.10;;;;;;;18.56;41.88;99626.34;;;;-56
2020/02/25 04:22:22;;;;;;;1.10;1.10;;;;;;;18.59;41.90;99624.98;;;;-57
2020/02/25 04:25:21;;;;;;;1.14;1.09;;;;;;;18.62;41.90;99629.73;;;;-57
2020/02/25 04:28:21;;;;;;;1.21;1.11;;;;;;;18.64;41.71;99625.55;;;;-56
2020/02/25 04:31:21;;;;;;;1.30;1.20;;;;;;;18.68;41.72;99618.50;;;;-56
2020/02/25 04:34:22;;;;;;;1.10;1.10;;;;;;;18.71;41.89;99612.91;;;;-57
2020/02/25 04:37:22;;;;;;;1.09;1.09;;;;;;;18.76;41.96;99617.09;;;;-57
2020/02/25 04:40:21;;;;;;;1.06;1.03;;;;;;;18.79;41.84;99622.35;;;;-56
2020/02/25 04:43:22;;;;;;;1.29;1.19;;;;;;;18.83;41.87;99613.52;;;;-57
2020/02/25 04:46:22;;;;;;;1.20;1.06;;;;;;;18.87;41.84;99604.89;;;;-58
2020/02/25 04:49:22;;;;;;;1.10;1.10;;;;;;;18.91;42.03;99604.18;;;;-58
2020/02/25 04:52:22;;;;;;;1.26;1.09;;;;;;;18.93;41.94;99602.64;;;;-57
2020/02/25 04:55:22;;;;;;;1.18;1.18;;;;;;;18.96;42.06;99605.35;;;;-56
2020/02/25 04:58:22;;;;;;;1.17;1.10;;;;;;;19.00;42.01;99603.81;;;;-57
2020/02/25 05:01:22;;;;;;;1.20;1.10;;;;;;;19.02;41.93;99597.69;;;;-57
2020/02/25 05:07:22;;;;;;;1.15;1.13;;;;;;;19.06;41.99;99596.81;;;;-56
2020/02/25 05:10:22;;;;;;;1.21;1.00;;;;;;;19.09;42.05;99592.22;;;;-56
2020/02/25 05:13:22;;;;;;;1.02;1.02;;;;;;;19.12;42.00;99589.04;;;;-56
2020/02/25 05:16:22;;;;;;;1.01;1.01;;;;;;;19.12;41.99;99583.18;;;;-56
2020/02/25 05:19:22;;;;;;;1.17;1.17;;;;;;;19.14;41.87;99581.77;;;;-56
2020/02/25 05:22:22;;;;;;;1.09;1.09;;;;;;;19.15;41.96;99577.22;;;;-56
2020/02/25 05:25:21;;;;;;;1.12;1.11;;;;;;;19.16;41.91;99571.39;;;;-56
2020/02/25 05:28:22;;;;;;;1.14;1.13;;;;;;;19.18;41.87;99572.86;;;;-56
2020/02/25 05:31:22;;;;;;;1.10;1.10;;;;;;;19.17;41.81;99569.11;;;;-57
2020/02/25 05:34:22;;;;;;;1.10;1.10;;;;;;;19.19;41.84;99562.08;;;;-55
2020/02/25 05:37:22;;;;;;;1.10;1.10;;;;;;;19.17;41.80;99554.69;;;;-56
2020/02/25 05:40:21;;;;;;;1.30;1.20;;;;;;;19.18;41.77;99554.61;;;;-57
2020/02/25 05:43:22;;;;;;;1.27;1.17;;;;;;;19.18;41.77;99550.23;;;;-56
2020/02/25 05:46:22;;;;;;;1.19;1.15;;;;;;;19.18;41.73;99550.86;;;;-58
2020/02/25 05:49:22;;;;;;;1.23;1.07;;;;;;;19.18;41.69;99547.39;;;;-58
2020/02/25 05:52:22;;;;;;;1.11;1.11;;;;;;;19.18;41.70;99547.59;;;;-56
2020/02/25 05:55:22;;;;;;;1.15;1.12;;;;;;;19.19;41.66;99549.53;;;;-56
2020/02/25 05:58:21;;;;;;;1.10;1.10;;;;;;;19.18;41.71;99545.91;;;;-58
2020/02/25 06:01:22;;;;;;;1.18;1.10;;;;;;;19.19;41.67;99549.19;;;;-56
2020/02/25 06:04:22;;;;;;;1.14;1.03;;;;;;;19.18;41.61;99539.98;;;;-56
2020/02/25 06:07:22;;;;;;;1.18;1.12;;;;;;;19.18;41.67;99532.02;;;;-57
2020/02/25 06:10:22;;;;;;;1.19;1.10;;;;;;;19.17;41.67;99531.25;;;;-56
2020/02/25 06:13:21;;;;;;;1.31;1.21;;;;;;;19.18;41.67;99535.50;;;;-57
2020/02/25 06:16:21;;;;;;;1.23;1.13;;;;;;;19.16;41.69;99531.72;;;;-57
2020/02/25 06:19:22;;;;;;;0.99;0.99;;;;;;;19.16;41.62;99531.05;;;;-58
2020/02/25 06:22:22;;;;;;;1.35;1.20;;;;;;;19.16;41.58;99527.38;;;;-56
2020/02/25 06:25:22;;;;;;;1.04;1.04;;;;;;;19.16;41.59;99524.39;;;;-57
2020/02/25 06:28:21;;;;;;;1.18;1.08;;;;;;;19.16;41.56;99526.34;;;;-57
2020/02/25 06:31:22;;;;;;;1.13;1.10;;;;;;;19.16;41.64;99521.81;;;;-58
2020/02/25 06:34:21;;;;;;;1.28;1.18;;;;;;;19.15;41.61;99520.31;;;;-56
2020/02/25 06:37:22;;;;;;;1.17;1.09;;;;;;;19.15;41.58;99519.34;;;;-57
2020/02/25 06:40:21;;;;;;;0.95;0.95;;;;;;;19.15;41.55;99522.45;;;;-59
2020/02/25 06:43:21;;;;;;;1.11;1.10;;;;;;;19.15;41.61;99517.63;;;;-59
2020/02/25 06:46:22;;;;;;;1.15;1.10;;;;;;;19.15;41.57;99514.28;;;;-60
2020/02/25 06:49:21;;;;;;;1.08;1.08;;;;;;;19.15;41.58;99509.77;;;;-59
2020/02/25 06:52:22;;;;;;;1.18;1.10;;;;;;;19.15;41.52;99508.40;;;;-59
2020/02/25 06:55:21;;;;;;;1.10;1.10;;;;;;;19.15;41.50;99497.92;;;;-59
2020/02/25 06:58:21;;;;;;;1.11;1.06;;;;;;;19.15;41.57;99501.13;;;;-59
2020/02/25 07:01:22;;;;;;;1.21;1.10;;;;;;;19.15;41.51;99499.89;;;;-59
2020/02/25 07:04:22;;;;;;;1.14;1.07;;;;;;;19.15;41.49;99501.03;;;;-60
2020/02/25 07:07:21;;;;;;;1.03;1.03;;;;;;;19.15;41.46;99498.92;;;;-59
2020/02/25 07:10:22;;;;;;;1.00;1.00;;;;;;;19.15;41.50;99496.85;;;;-59
2020/02/25 07:13:22;;;;;;;1.29;1.19;;;;;;;19.15;41.54;99502.64;;;;-59
2020/02/25 07:16:22;;;;;;;1.34;1.24;;;;;;;19.14;41.49;99502.55;;;;-59
2020/02/25 07:23:44;;;;;;;1.10;1.10;;;;;;;19.15;41.56;99498.22;;;;-59
2020/02/25 07:27:06;;;;;;;1.04;1.04;;;;;;;19.16;41.56;99492.02;;;;-59
2020/02/25 07:29:21;;;;;;;1.16;1.10;;;;;;;19.15;41.49;99497.05;;;;-59
2020/02/25 07:32:21;;;;;;;1.07;1.00;;;;;;;19.15;41.51;99492.33;;;;-58
2020/02/25 07:35:22;;;;;;;1.23;1.10;;;;;;;19.15;41.51;99492.09;;;;-59
2020/02/25 07:38:22;;;;;;;1.10;1.10;;;;;;;19.16;41.46;99495.91;;;;-59
2020/02/25 07:41:22;;;;;;;1.10;1.10;;;;;;;19.16;41.45;99491.52;;;;-59
2020/02/25 07:44:22;;;;;;;1.02;1.02;;;;;;;19.17;41.52;99491.55;;;;-59
2020/02/25 07:47:22;;;;;;;1.21;1.11;;;;;;;19.17;41.45;99487.27;;;;-59
2020/02/25 07:50:22;;;;;;;1.08;1.06;;;;;;;19.17;41.48;99487.03;;;;-59
2020/02/25 07:53:22;;;;;;;1.10;1.10;;;;;;;19.17;41.46;99488.73;;;;-59
2020/02/25 07:56:22;;;;;;;1.14;1.14;;;;;;;19.17;41.51;99486.44;;;;-59
2020/02/25 07:59:22;;;;;;;1.11;1.10;;;;;;;19.17;41.50;99483.42;;;;-59
2020/02/25 08:02:22;;;;;;;1.20;1.10;;;;;;;19.17;41.47;99484.59;;;;-59
2020/02/25 08:05:21;;;;;;;7.56;1.30;;;;;;;19.12;41.90;99476.00;;;;-55
2020/02/25 08:08:22;;;;;;;4.02;1.13;;;;;;;19.03;42.09;99473.13;;;;-52
2020/02/25 08:11:22;;;;;;;1.78;1.26;;;;;;;18.94;42.29;99481.48;;;;-51
2020/02/25 08:14:21;;;;;;;1.46;1.23;;;;;;;18.91;42.37;99472.52;;;;-55
2020/02/25 08:17:22;;;;;;;3.02;1.27;;;;;;;18.95;42.20;99468.30;;;;-55
2020/02/25 08:20:22;;;;;;;3.53;1.20;;;;;;;19.00;42.10;99472.80;;;;-55
2020/02/25 08:23:22;;;;;;;4.80;1.30;;;;;;;19.05;42.54;99467.73;;;;-54
2020/02/25 08:26:22;;;;;;;1.72;1.11;;;;;;;19.08;42.22;99463.14;;;;-53
2020/02/25 08:29:22;;;;;;;1.77;1.10;;;;;;;19.11;42.32;99454.89;;;;-56
2020/02/25 08:32:22;;;;;;;2.39;1.10;;;;;;;19.15;42.64;99459.23;;;;-53
2020/02/25 08:35:22;;;;;;;1.73;1.19;;;;;;;19.18;42.53;99450.84;;;;-54
2020/02/25 08:38:22;;;;;;;2.87;1.10;;;;;;;19.21;42.77;99451.27;;;;-54
2020/02/25 08:41:22;;;;;;;1.75;1.18;;;;;;;19.24;42.77;99451.02;;;;-55
2020/02/25 08:44:22;;;;;;;1.45;1.20;;;;;;;19.27;42.48;99446.66;;;;-54
2020/02/25 08:47:22;;;;;;;3.15;1.18;;;;;;;19.29;42.25;99448.16;;;;-55
2020/02/25 08:50:22;;;;;;;1.04;1.00;;;;;;;19.32;42.47;99448.14;;;;-58
2020/02/25 08:53:22;;;;;;;2.12;1.10;;;;;;;19.35;42.28;99439.42;;;;-58
2020/02/25 08:56:22;;;;;;;1.05;1.03;;;;;;;19.40;42.82;99441.98;;;;-54
2020/02/25 08:59:22;;;;;;;1.20;1.10;;;;;;;19.41;42.62;99439.27;;;;-51
2020/02/25 09:02:22;;;;;;;1.25;1.11;;;;;;;19.45;42.75;99434.69;;;;-60
2020/02/25 09:05:21;;;;;;;1.92;1.00;;;;;;;19.47;42.63;99429.79;;;;-53
2020/02/25 09:08:22;;;;;;;2.49;1.16;;;;;;;19.50;42.98;99432.81;;;;-56
2020/02/25 09:11:22;;;;;;;3.29;1.17;;;;;;;19.51;42.73;99430.67;;;;-56
2020/02/25 09:14:22;;;;;;;4.01;1.09;;;;;;;19.50;42.34;99429.06;;;;-55
2020/02/25 09:17:22;;;;;;;3.87;1.19;;;;;;;19.51;42.22;99425.48;;;;-55
2020/02/25 09:20:22;;;;;;;1.20;1.05;;;;;;;19.50;42.15;99419.58;;;;-55
2020/02/25 09:23:22;;;;;;;1.01;1.00;;;;;;;19.51;42.07;99413.42;;;;-53
2020/02/25 09:26:22;;;;;;;2.50;1.11;;;;;;;19.50;41.95;99416.58;;;;-54
2020/02/25 09:29:22;;;;;;;1.07;1.00;;;;;;;19.49;41.95;99411.28;;;;-53
2020/02/25 09:32:22;;;;;;;3.69;1.20;;;;;;;19.49;41.90;99403.81;;;;-53
2020/02/25 09:35:22;;;;;;;2.00;1.20;;;;;;;19.49;42.39;99404.82;;;;-49
2020/02/25 09:38:22;;;;;;;1.55;1.05;;;;;;;19.49;42.75;99401.97;;;;-49
2020/02/25 09:41:22;;;;;;;1.42;1.10;;;;;;;19.51;43.01;99403.47;;;;-50
2020/02/25 09:44:21;;;;;;;1.37;1.03;;;;;;;19.51;43.05;99402.20;;;;-47
2020/02/25 09:47:22;;;;;;;1.96;1.06;;;;;;;19.51;43.04;99403.54;;;;-45
2020/02/25 09:50:22;;;;;;;1.95;1.19;;;;;;;19.55;43.21;99408.00;;;;-53
2020/02/25 09:53:22;;;;;;;1.27;1.01;;;;;;;19.55;43.06;99404.39;;;;-56
2020/02/25 09:56:22;;;;;;;1.41;1.20;;;;;;;19.56;43.08;99409.10;;;;-49
2020/02/25 09:59:22;;;;;;;1.01;1.00;;;;;;;19.56;43.28;99403.01;;;;-50
2020/02/25 10:02:22;;;;;;;2.47;1.10;;;;;;;19.58;43.26;99406.41;;;;-50
2020/02/25 10:05:22;;;;;;;1.19;1.10;;;;;;;19.58;43.10;99402.56;;;;-49
2020/02/25 10:08:22;;;;;;;1.82;1.20;;;;;;;19.59;43.18;99401.66;;;;-48
2020/02/25 10:11:22;;;;;;;1.04;1.00;;;;;;;19.60;43.19;99396.81;;;;-53
2020/02/25 10:14:22;;;;;;;1.45;1.10;;;;;;;19.61;43.13;99389.31;;;;-47
2020/02/25 10:17:22;;;;;;;1.71;1.13;;;;;;;19.62;43.05;99389.07;;;;-54
2020/02/25 10:20:22;;;;;;;1.22;1.10;;;;;;;19.63;42.91;99387.36;;;;-52
2020/02/25 10:23:22;;;;;;;1.15;1.10;;;;;;;19.65;42.91;99384.39;;;;-55
2020/02/25 10:26:22;;;;;;;1.31;1.10;;;;;;;19.64;42.98;99378.77;;;;-54
2020/02/25 10:29:22;;;;;;;1.17;1.09;;;;;;;19.65;43.01;99381.28;;;;-50
2020/02/25 10:32:22;;;;;;;1.20;1.10;;;;;;;19.66;43.03;99380.56;;;;-53
2020/02/25 10:35:22;;;;;;;1.23;1.14;;;;;;;19.67;42.80;99378.08;;;;-51
2020/02/25 10:38:22;;;;;;;1.61;0.92;;;;;;;19.68;42.82;99379.95;;;;-49
2020/02/25 10:41:22;;;;;;;2.96;1.09;;;;;;;19.70;42.93;99373.38;;;;-52
2020/02/25 10:44:21;;;;;;;3.20;1.11;;;;;;;19.71;42.53;99372.83;;;;-52
2020/02/25 10:47:30;;;;;;;1.20;1.10;;;;;;;19.71;42.35;99371.31;;;;-52
2020/02/25 10:50:22;;;;;;;1.18;1.08;;;;;;;19.69;42.60;99368.75;;;;-50
2020/02/25 10:53:22;;;;;;;1.96;1.13;;;;;;;19.70;42.68;99366.00;;;;-48
2020/02/25 10:56:22;;;;;;;0.99;0.99;;;;;;;19.70;42.59;99365.03;;;;-51
2020/02/25 10:59:21;;;;;;;1.22;1.10;;;;;;;19.71;42.59;99360.93;;;;-52
2020/02/25 11:02:22;;;;;;;1.39;1.10;;;;;;;19.72;42.61;99358.84;;;;-55
2020/02/25 11:05:22;;;;;;;3.25;1.18;;;;;;;19.72;42.55;99352.38;;;;-57
2020/02/25 11:08:22;;;;;;;5.13;1.37;;;;;;;19.72;42.51;99354.26;;;;-50
2020/02/25 11:11:21;;;;;;;1.91;1.15;;;;;;;19.73;42.55;99357.88;;;;-50
2020/02/25 11:14:22;;;;;;;2.44;1.20;;;;;;;19.72;42.54;99353.18;;;;-51
2020/02/25 11:17:21;;;;;;;5.01;1.20;;;;;;;19.75;42.58;99353.73;;;;-50
2020/02/25 11:20:21;;;;;;;3.56;1.20;;;;;;;19.75;42.54;99349.91;;;;-50
2020/02/25 11:23:22;;;;;;;1.82;1.10;;;;;;;19.76;42.55;99342.30;;;;-49
2020/02/25 11:26:22;;;;;;;2.11;1.34;;;;;;;19.77;42.51;99333.52;;;;-55
2020/02/25 11:29:21;;;;;;;3.64;1.27;;;;;;;19.77;42.61;99325.91;;;;-51
2020/02/25 11:32:22;;;;;;;1.66;1.20;;;;;;;19.79;42.53;99318.75;;;;-48
2020/02/25 11:35:21;;;;;;;1.66;1.29;;;;;;;19.78;42.25;99317.22;;;;-48
2020/02/25 11:38:21;;;;;;;1.63;1.19;;;;;;;19.79;42.14;99314.23;;;;-49
2020/02/25 11:41:22;;;;;;;2.15;1.22;;;;;;;19.78;42.07;99310.09;;;;-48
2020/02/25 11:44:21;;;;;;;3.36;1.30;;;;;;;19.76;42.04;99316.00;;;;-49
2020/02/25 11:47:21;;;;;;;3.31;1.30;;;;;;;19.75;41.99;99304.84;;;;-48
2020/02/25 11:50:21;;;;;;;1.30;1.20;;;;;;;19.75;41.95;99302.58;;;;-48
2020/02/25 11:53:22;;;;;;;3.05;1.25;;;;;;;19.74;41.90;99303.05;;;;-48
2020/02/25 11:56:22;;;;;;;1.22;1.12;;;;;;;19.73;41.90;99292.04;;;;-48
2020/02/25 11:59:22;;;;;;;1.24;1.12;;;;;;;19.73;41.81;99294.41;;;;-48
2020/02/25 12:02:21;;;;;;;1.16;1.10;;;;;;;19.72;41.84;99284.74;;;;-48
2020/02/25 12:05:22;;;;;;;1.73;1.30;;;;;;;19.72;41.77;99280.39;;;;-48
2020/02/25 12:08:22;;;;;;;1.59;1.20;;;;;;;19.71;41.76;99271.66;;;;-48
2020/02/25 12:11:21;;;;;;;2.12;1.27;;;;;;;19.71;41.72;99273.56;;;;-48
2020/02/25 12:14:22;;;;;;;1.21;1.11;;;;;;;19.70;41.72;99267.78;;;;-48
2020/02/25 12:17:22;;;;;;;1.26;1.16;;;;;;;19.69;41.70;99260.72;;;;-48
2020/02/25 12:20:22;;;;;;;1.23;1.12;;;;;;;19.69;41.69;99253.28;;;;-49
2020/02/25 12:23:21;;;;;;;1.20;1.10;;;;;;;19.68;41.68;99247.46;;;;-44
2020/02/25 12:26:21;;;;;;;1.33;1.14;;;;;;;19.69;42.19;99245.81;;;;-49
2020/02/25 12:29:22;;;;;;;2.32;1.31;;;;;;;19.71;42.10;99243.52;;;;-55
2020/02/25 12:32:22;;;;;;;4.63;1.33;;;;;;;19.69;42.18;99236.86;;;;-53
2020/02/25 12:35:22;;;;;;;2.18;1.30;;;;;;;19.71;42.32;99236.74;;;;-50
2020/02/25 12:38:22;;;;;;;8.18;1.50;;;;;;;19.73;42.42;99238.20;;;;-57
2020/02/25 12:41:21;;;;;;;3.01;1.37;;;;;;;19.74;42.63;99231.13;;;;-53
2020/02/25 12:44:21;;;;;;;6.95;1.45;;;;;;;19.77;42.59;99236.63;;;;-51
2020/02/25 12:47:21;;;;;;;6.02;1.47;;;;;;;19.79;42.45;99235.16;;;;-50
2020/02/25 12:50:21;;;;;;;2.44;1.46;;;;;;;19.81;42.20;99236.95;;;;-57
2020/02/25 12:53:21;;;;;;;1.63;1.27;;;;;;;19.83;42.05;99239.34;;;;-59
2020/02/25 12:56:22;;;;;;;1.32;1.22;;;;;;;19.84;42.01;99237.12;;;;-59
2020/02/25 12:59:22;;;;;;;2.15;1.21;;;;;;;19.87;41.91;99231.23;;;;-57
2020/02/25 13:02:22;;;;;;;1.91;1.20;;;;;;;19.90;41.88;99237.00;;;;-56
2020/02/25 13:05:22;;;;;;;3.14;1.16;;;;;;;19.91;41.82;99229.72;;;;-55
2020/02/25 13:08:22;;;;;;;1.74;1.27;;;;;;;19.94;41.79;99224.42;;;;-55
2020/02/25 13:11:21;;;;;;;1.52;1.19;;;;;;;19.96;41.74;99224.33;;;;-55
2020/02/25 13:14:21;;;;;;;2.71;1.32;;;;;;;19.97;41.68;99218.63;;;;-55
2020/02/25 13:17:21;;;;;;;2.56;1.30;;;;;;;19.99;41.66;99207.47;;;;-55
2020/02/25 13:20:22;;;;;;;1.47;1.30;;;;;;;20.01;41.71;99201.66;;;;-55
2020/02/25 13:23:22;;;;;;;1.34;1.23;;;;;;;20.03;41.65;99201.20;;;;-55
2020/02/25 13:26:22;;;;;;;1.54;1.30;;;;;;;20.05;41.65;99197.72;;;;-55
2020/02/25 13:29:22;;;;;;;2.50;1.18;;;;;;;20.08;41.61;99197.34;;;;-55
2020/02/25 13:32:22;;;;;;;1.41;1.30;;;;;;;20.10;41.59;99198.67;;;;-54
2020/02/25 13:35:22;;;;;;;2.32;1.21;;;;;;;20.13;41.59;99199.23;;;;-55
2020/02/25 13:38:22;;;;;;;1.61;1.23;;;;;;;20.14;41.50;99200.17;;;;-55
2020/02/25 13:41:21;;;;;;;5.35;1.31;;;;;;;20.16;41.54;99195.01;;;;-55
2020/02/25 13:44:22;;;;;;;1.30;1.20;;;;;;;20.18;41.41;99203.94;;;;-55
2020/02/25 13:47:21;;;;;;;1.73;1.37;;;;;;;20.21;41.83;99200.55;;;;-56
2020/02/25 13:50:22;;;;;;;1.48;1.35;;;;;;;20.26;41.93;99184.47;;;;-58
2020/02/25 13:53:22;;;;;;;1.99;1.29;;;;;;;20.32;42.37;99190.31;;;;-58
2020/02/25 13:56:21;;;;;;;2.33;1.39;;;;;;;20.32;42.22;99190.66;;;;-61
2020/02/25 13:59:22;;;;;;;3.27;1.37;;;;;;;20.29;42.61;99190.83;;;;-59
2020/02/25 14:02:22;;;;;;;6.85;1.52;;;;;;;20.27;42.26;99182.84;;;;-58
2020/02/25 14:05:22;;;;;;;3.55;1.45;;;;;;;20.28;42.52;99187.48;;;;-52
2020/02/25 14:08:22;;;;;;;4.38;1.46;;;;;;;20.31;42.63;99176.62;;;;-53
2020/02/25 14:11:21;;;;;;;4.75;1.45;;;;;;;20.36;42.80;99177.38;;;;-53
2020/02/25 14:14:21;;;;;;;2.51;1.38;;;;;;;20.43;42.51;99171.83;;;;-53
2020/02/25 14:17:21;;;;;;;3.38;1.43;;;;;;;20.46;42.66;99170.55;;;;-63
2020/02/25 14:20:22;;;;;;;3.73;1.29;;;;;;;20.49;42.79;99175.63;;;;-56
2020/02/25 14:23:21;;;;;;;6.86;1.58;;;;;;;20.49;42.66;99167.02;;;;-62
2020/02/25 14:26:21;;;;;;;4.35;1.59;;;;;;;20.50;42.31;99161.73;;;;-49
2020/02/25 14:29:22;;;;;;;4.65;1.61;;;;;;;20.53;42.53;99165.75;;;;-47
2020/02/25 14:32:21;;;;;;;2.71;1.49;;;;;;;20.54;42.48;99152.25;;;;-58
2020/02/25 14:35:22;;;;;;;2.80;1.37;;;;;;;20.58;42.64;99161.28;;;;-51
2020/02/25 14:42:10;;;;;;;1.88;1.41;;;;;;;20.62;42.62;99157.17;;;;-58
2020/02/25 14:45:21;;;;;;;1.73;1.40;;;;;;;20.66;42.43;99149.53;;;;-56
2020/02/25 14:48:22;;;;;;;2.04;1.39;;;;;;;20.68;42.44;99147.05;;;;-54
2020/02/25 14:51:21;;;;;;;2.62;1.39;;;;;;;20.73;42.47;99151.92;;;;-54
2020/02/25 14:54:22;;;;;;;2.38;1.45;;;;;;;20.74;42.41;99151.02;;;;-51
2020/02/25 14:57:22;;;;;;;3.70;1.53;;;;;;;20.75;42.04;99148.02;;;;-50
2020/02/25 15:00:22;;;;;;;2.08;1.34;;;;;;;20.78;42.35;99134.29;;;;-52
2020/02/25 15:03:22;;;;;;;2.73;1.46;;;;;;;20.80;42.21;99141.11;;;;-47
2020/02/25 15:06:21;;;;;;;3.09;1.45;;;;;;;20.80;42.19;99137.75;;;;-52
2020/02/25 15:09:21;;;;;;;4.98;1.71;;;;;;;20.81;42.18;99134.73;;;;-55
2020/02/25 15:12:22;;;;;;;4.89;1.49;;;;;;;20.83;42.30;99135.83;;;;-52
2020/02/25 15:15:21;;;;;;;2.51;1.47;;;;;;;20.83;42.04;99138.13;;;;-58
2020/02/25 15:18:22;;;;;;;3.87;1.50;;;;;;;20.84;42.55;99136.52;;;;-51
2020/02/25 15:21:22;;;;;;;4.85;1.69;;;;;;;20.84;42.23;99124.86;;;;-50
2020/02/25 15:24:21;;;;;;;2.61;1.41;;;;;;;20.83;41.92;99125.76;;;;-44
2020/02/25 15:27:21;;;;;;;2.79;1.21;;;;;;;20.86;42.36;99130.00;;;;-53
2020/02/25 15:30:22;;;;;;;4.00;1.41;;;;;;;20.86;42.19;99119.63;;;;-53
2020/02/25 15:33:21;;;;;;;1.81;1.31;;;;;;;20.87;42.45;99122.16;;;;-53
2020/02/25 15:36:21;;;;;;;3.33;1.37;;;;;;;20.87;42.25;99115.62;;;;-54
2020/02/25 15:39:21;;;;;;;1.92;1.39;;;;;;;20.93;42.53;99112.87;;;;-58
2020/02/25 15:42:21;;;;;;;5.67;1.30;;;;;;;20.91;42.03;99110.38;;;;-54
2020/02/25 15:45:22;;;;;;;4.87;1.42;;;;;;;20.92;42.10;99105.80;;;;-59
2020/02/25 15:48:21;;;;;;;3.38;1.29;;;;;;;20.94;41.87;99109.35;;;;-55
2020/02/25 15:51:21;;;;;;;4.56;1.50;;;;;;;20.96;42.01;99105.10;;;;-53
2020/02/25 15:54:21;;;;;;;3.13;1.35;;;;;;;20.97;41.84;99103.84;;;;-62
2020/02/25 15:57:22;;;;;;;5.63;1.41;;;;;;;21.00;41.85;99106.60;;;;-64
2020/02/25 16:00:22;;;;;;;5.22;1.39;;;;;;;21.03;41.84;99107.90;;;;-54
2020/02/25 16:03:22;;;;;;;3.30;1.41;;;;;;;21.05;41.95;99097.95;;;;-56
2020/02/25 16:06:21;;;;;;;3.83;1.29;;;;;;;21.10;41.98;99095.56;;;;-61
2020/02/25 16:09:21;;;;;;;2.57;1.20;;;;;;;21.09;41.81;99082.62;;;;-57
2020/02/25 16:12:22;;;;;;;3.17;1.41;;;;;;;21.12;42.02;99080.33;;;;-59
2020/02/25 16:15:21;;;;;;;2.71;1.51;;;;;;;21.14;42.22;99070.11;;;;-60
2020/02/25 16:18:26;;;;;;;3.23;1.49;;;;;;;21.12;41.75;99068.16;;;;-61
2020/02/25 16:21:21;;;;;;;1.79;1.47;;;;;;;21.10;41.54;99058.13;;;;-61
2020/02/25 16:24:22;;;;;;;1.94;1.41;;;;;;;21.07;41.39;99047.20;;;;-60
2020/02/25 16:27:21;;;;;;;2.74;1.37;;;;;;;21.06;41.39;99049.44;;;;-60
2020/02/25 16:30:22;;;;;;;3.16;1.29;;;;;;;21.04;41.27;99048.42;;;;-61
2020/02/25 16:33:22;;;;;;;3.55;1.39;;;;;;;21.05;41.07;99042.95;;;;-60
2020/02/25 16:36:21;;;;;;;2.08;1.51;;;;;;;21.05;41.11;99036.09;;;;-60
2020/02/25 16:39:21;;;;;;;2.61;1.29;;;;;;;21.04;41.30;99035.07;;;;-61
2020/02/25 16:43:21;;;;;;;1.83;1.35;;;;;;;21.08;41.50;99037.28;;;;-59
2020/02/25 16:46:21;;;;;;;1.89;1.30;;;;;;;21.11;41.69;99036.09;;;;-59
2020/02/25 16:49:21;;;;;;;2.06;1.45;;;;;;;21.12;41.67;99036.34;;;;-53
2020/02/25 16:52:22;;;;;;;5.18;1.49;;;;;;;21.14;41.62;99032.10;;;;-55
2020/02/25 16:55:22;;;;;;;2.26;1.29;;;;;;;21.14;41.66;99024.38;;;;-54
2020/02/25 16:58:22;;;;;;;2.65;1.32;;;;;;;21.15;41.63;99024.49;;;;-53
2020/02/25 17:01:22;;;;;;;1.92;1.33;;;;;;;21.17;41.55;99024.41;;;;-55
2020/02/25 17:04:22;;;;;;;4.35;1.40;;;;;;;21.15;41.61;99024.72;;;;-53
2020/02/25 17:07:21;;;;;;;1.69;1.39;;;;;;;21.15;41.62;99019.86;;;;-51
2020/02/25 17:10:21;;;;;;;1.36;1.26;;;;;;;21.16;41.40;99006.95;;;;-53
2020/02/25 17:13:21;;;;;;;1.41;1.31;;;;;;;21.17;41.64;99004.55;;;;-54